createdAt,value
2023-03-14T00:00:16.035Z,20.92
2023-03-14T00:02:44.965Z,23.85
2023-03-14T00:05:13.813Z,28.35
2023-03-14T00:07:42.902Z,32.63
2023-03-14T00:10:15.865Z,36.17
2023-03-14T00:12:45.192Z,38.30
2023-03-14T00:15:14.857Z,41.05
2023-03-14T00:17:46.239Z,41.00
2023-03-14T00:20:15.468Z,52.85
2023-03-14T00:22:44.475Z,55.72
2023-03-14T00:25:14.428Z,64.97
2023-03-14T00:27:43.236Z,72.20
2023-03-14T00:30:15.219Z,73.82
2023-03-14T00:32:44.574Z,78.30
2023-03-14T00:35:13.478Z,78.82
2023-03-14T00:37:42.674Z,78.93
2023-03-14T00:40:12.065Z,73.22
2023-03-14T00:42:41.409Z,66.85
2023-03-14T00:45:12.052Z,70.88
2023-03-14T00:47:41.248Z,65.30
2023-03-14T00:50:10.829Z,70.38
2023-03-14T00:52:41.209Z,68.50
2023-03-14T00:55:11.418Z,68.00
2023-03-14T00:57:40.208Z,64.20
2023-03-14T01:00:15.497Z,61.50
2023-03-14T01:02:48.039Z,61.28
2023-03-14T01:05:21.412Z,59.30
2023-03-14T01:07:53.009Z,62.03
2023-03-14T01:10:24.853Z,61.72
2023-03-14T01:12:57.492Z,62.75
2023-03-14T01:15:28.334Z,56.22
2023-03-14T01:17:59.487Z,51.25
2023-03-14T01:20:32.590Z,53.17
2023-03-14T01:23:02.428Z,48.97
2023-03-14T01:25:32.263Z,47.50
2023-03-14T01:28:02.787Z,43.42
2023-03-14T01:30:33.438Z,46.03
2023-03-14T01:33:03.494Z,42.38
2023-03-14T01:35:33.543Z,45.10
2023-03-14T01:38:03.575Z,37.97
2023-03-14T01:40:33.503Z,39.28
2023-03-14T01:43:16.214Z,37.90
2023-03-14T01:46:24.733Z,35.30
2023-03-14T01:49:17.585Z,37.33
2023-03-14T01:52:03.534Z,35.88
2023-03-14T01:54:38.764Z,38.35
2023-03-14T01:57:23.190Z,36.53
2023-03-14T01:59:58.966Z,38.30
2023-03-14T02:02:30.891Z,38.53
2023-03-14T02:05:02.626Z,38.92
2023-03-14T02:07:56.120Z,39.95
2023-03-14T02:10:41.900Z,41.00
2023-03-14T02:16:03.070Z,44.85
2023-03-14T02:18:44.967Z,54.67
2023-03-14T02:21:44.786Z,52.65
2023-03-14T02:24:19.710Z,58.15
2023-03-14T02:27:18.907Z,74.57
2023-03-14T02:29:55.028Z,69.47
2023-03-14T02:32:26.458Z,66.30
2023-03-14T02:35:00.201Z,71.78
2023-03-14T02:37:38.368Z,68.40
2023-03-14T02:40:09.103Z,66.03
2023-03-14T02:42:39.749Z,62.97
2023-03-14T02:45:12.299Z,71.30
2023-03-14T02:47:56.298Z,58.33
2023-03-14T02:50:33.274Z,62.90
2023-03-14T02:53:03.385Z,51.45
2023-03-14T02:55:34.515Z,50.85
2023-03-14T02:58:10.290Z,48.97
2023-03-14T03:00:40.401Z,42.97
2023-03-14T03:03:12.895Z,46.05
2023-03-14T03:05:44.768Z,47.22
2023-03-14T03:08:14.238Z,44.35
2023-03-14T03:10:44.285Z,44.03
2023-03-14T03:13:14.220Z,41.30
2023-03-14T03:15:44.851Z,38.25
2023-03-14T03:18:14.740Z,37.60
2023-03-14T03:20:47.334Z,33.22
2023-03-14T03:23:17.370Z,33.60
2023-03-14T03:25:52.350Z,29.83
2023-03-14T03:28:22.953Z,23.80
2023-03-14T03:30:53.951Z,22.00
2023-03-14T03:33:25.824Z,21.95
2023-03-14T03:35:56.783Z,19.85
2023-03-14T03:38:32.294Z,23.85
2023-03-14T03:41:11.233Z,19.33
2023-03-14T03:43:41.808Z,19.73
2023-03-14T03:46:13.769Z,18.95
2023-03-14T03:48:43.741Z,20.02
2023-03-14T03:51:17.532Z,19.30
2023-03-14T03:53:47.597Z,18.15
2023-03-14T03:56:22.522Z,14.05
2023-03-14T03:58:53.228Z,11.50
2023-03-14T04:01:23.210Z,14.25
2023-03-14T04:03:56.914Z,16.98
2023-03-14T04:06:28.177Z,23.63
2023-03-14T04:09:00.974Z,17.13
2023-03-14T04:11:39.938Z,18.38
2023-03-14T04:14:29.398Z,14.50
2023-03-14T04:17:25.400Z,14.18
2023-03-14T04:19:56.052Z,34.60
2023-03-14T04:22:33.665Z,42.20
2023-03-14T04:25:05.574Z,15.00
2023-03-14T04:27:39.205Z,129.43
2023-03-14T04:30:17.494Z,22.05
2023-03-14T04:32:53.221Z,14.13
2023-03-14T04:35:26.448Z,14.07
2023-03-14T04:38:05.470Z,14.05
2023-03-14T04:40:38.586Z,13.20
2023-03-14T04:43:11.624Z,14.35
2023-03-14T04:45:47.429Z,15.27
2023-03-14T04:48:16.857Z,12.68
2023-03-14T04:50:45.638Z,13.93
2023-03-14T04:53:15.133Z,11.60
2023-03-14T04:55:51.776Z,14.10
2023-03-14T04:58:23.513Z,13.65
2023-03-14T05:00:53.873Z,13.70
2023-03-14T05:04:00.927Z,13.85
2023-03-14T05:06:50.123Z,13.10
2023-03-14T05:09:36.481Z,13.23
2023-03-14T05:12:43.627Z,13.35
2023-03-14T05:15:44.527Z,14.00
2023-03-14T05:18:45.111Z,12.95
2023-03-14T05:21:39.321Z,13.68
2023-03-14T05:24:37.707Z,13.05
2023-03-14T05:27:41.906Z,14.75
2023-03-14T05:30:35.568Z,12.43
2023-03-14T05:33:07.716Z,13.55
2023-03-14T05:35:55.370Z,14.02
2023-03-14T05:38:42.800Z,15.38
2023-03-14T05:41:31.865Z,14.80
2023-03-14T05:44:19.146Z,17.02
2023-03-14T05:46:57.304Z,14.80
2023-03-14T05:49:44.822Z,14.32
2023-03-14T05:52:33.796Z,14.95
2023-03-14T05:55:11.080Z,16.30
2023-03-14T05:57:56.158Z,15.95
2023-03-14T06:00:36.747Z,20.08
2023-03-14T06:03:28.789Z,22.90
2023-03-14T06:05:57.952Z,23.52
2023-03-14T06:08:27.609Z,20.75
2023-03-14T06:10:56.660Z,22.15
2023-03-14T06:13:30.536Z,18.63
2023-03-14T06:16:03.154Z,16.17
2023-03-14T06:18:32.947Z,16.42
2023-03-14T06:21:02.111Z,18.00
2023-03-14T06:23:33.665Z,18.33
2023-03-14T06:26:03.710Z,17.73
2023-03-14T06:28:33.175Z,19.70
2023-03-14T06:31:04.197Z,21.02
2023-03-14T06:33:40.380Z,19.80
2023-03-14T06:36:10.611Z,18.35
2023-03-14T06:38:43.048Z,24.52
2023-03-14T06:41:12.624Z,21.55
2023-03-14T06:43:44.594Z,24.00
2023-03-14T06:46:18.028Z,25.95
2023-03-14T06:48:50.422Z,25.70
2023-03-14T06:51:20.303Z,24.60
2023-03-14T06:53:50.509Z,20.20
2023-03-14T06:56:22.529Z,23.40
2023-03-14T06:58:52.255Z,25.13
2023-03-14T07:03:59.491Z,25.42
2023-03-14T07:06:31.339Z,25.13
2023-03-14T07:09:01.780Z,21.77
2023-03-14T07:11:32.188Z,19.30
2023-03-14T07:14:01.506Z,17.83
2023-03-14T07:16:33.362Z,17.85
2023-03-14T07:19:03.579Z,15.38
2023-03-14T07:21:34.789Z,16.25
2023-03-14T07:24:09.635Z,18.92
2023-03-14T07:26:39.577Z,17.88
2023-03-14T07:29:08.945Z,17.77
2023-03-14T07:31:38.673Z,14.27
2023-03-14T07:34:07.983Z,14.63
2023-03-14T07:36:40.928Z,14.77
2023-03-14T07:39:10.374Z,11.02
2023-03-14T07:42:02.933Z,11.80
2023-03-14T07:44:48.594Z,13.65
2023-03-14T07:47:18.028Z,16.15
2023-03-14T07:49:47.234Z,15.43
2023-03-14T07:52:16.454Z,13.35
2023-03-14T07:54:45.281Z,10.68
2023-03-14T07:57:14.274Z,16.67
2023-03-14T07:59:43.213Z,15.25
2023-03-14T08:02:15.950Z,14.63
2023-03-14T08:04:45.377Z,10.43
2023-03-14T08:07:14.245Z,14.75
2023-03-14T08:09:43.711Z,16.35
2023-03-14T08:12:12.627Z,14.57
2023-03-14T08:14:41.525Z,17.00
2023-03-14T08:17:11.037Z,20.98
2023-03-14T08:19:40.115Z,19.25
2023-03-14T08:22:08.858Z,15.60
2023-03-14T08:24:38.000Z,13.93
2023-03-14T08:27:08.791Z,14.98
2023-03-14T08:29:38.776Z,14.25
2023-03-14T08:32:08.021Z,10.80
2023-03-14T08:34:37.205Z,11.63
2023-03-14T08:37:10.866Z,11.68
2023-03-14T08:39:45.445Z,17.58
2023-03-14T08:42:14.153Z,12.68
2023-03-14T08:44:43.632Z,13.10
2023-03-14T08:47:12.624Z,11.70
2023-03-14T08:49:44.350Z,12.82
2023-03-14T08:52:13.712Z,14.05
2023-03-14T08:54:48.989Z,10.43
2023-03-14T08:57:18.277Z,12.60
2023-03-14T08:59:46.977Z,15.98
2023-03-14T09:02:16.625Z,16.38
2023-03-14T09:04:46.501Z,17.98
2023-03-14T09:07:15.520Z,19.15
2023-03-14T09:09:44.252Z,17.80
2023-03-14T09:12:14.122Z,20.38
2023-03-14T09:14:42.786Z,26.38
2023-03-14T09:17:11.812Z,27.60
2023-03-14T09:19:40.637Z,25.42
2023-03-14T09:22:09.431Z,27.10
2023-03-14T09:24:38.520Z,29.23
2023-03-14T09:27:07.659Z,31.02
2023-03-14T09:29:39.576Z,36.90
2023-03-14T09:34:37.586Z,33.58
2023-03-14T09:37:06.972Z,32.33
2023-03-14T09:39:35.715Z,33.95
2023-03-14T09:42:08.455Z,34.42
2023-03-14T09:44:44.902Z,31.50
2023-03-14T09:47:16.451Z,30.65
2023-03-14T09:49:45.454Z,33.13
2023-03-14T09:52:19.064Z,13.95
2023-03-14T09:54:54.967Z,11.15
2023-03-14T09:57:26.823Z,8.82
2023-03-14T10:00:09.870Z,8.98
2023-03-14T10:02:39.398Z,13.10
2023-03-14T10:05:17.900Z,17.33
2023-03-14T10:07:46.957Z,14.75
2023-03-14T10:10:21.050Z,11.85
2023-03-14T10:12:58.342Z,13.70
2023-03-14T10:15:32.828Z,13.43
2023-03-14T10:18:06.154Z,10.50
2023-03-14T10:20:40.817Z,13.02
2023-03-14T10:23:26.139Z,12.15
2023-03-14T10:26:26.148Z,14.38
2023-03-14T10:29:03.540Z,16.85
2023-03-14T10:34:25.292Z,16.40
2023-03-14T10:37:08.534Z,16.13
2023-03-14T10:39:54.364Z,15.93
2023-03-14T10:42:36.026Z,13.77
2023-03-14T10:45:09.587Z,15.55
2023-03-14T10:47:50.033Z,16.85
2023-03-14T10:50:31.964Z,16.70
2023-03-14T10:53:07.886Z,18.42
2023-03-14T10:55:44.737Z,18.15
2023-03-14T10:58:24.343Z,17.08
2023-03-14T11:01:02.687Z,17.50
2023-03-14T11:03:36.026Z,16.90
2023-03-14T11:06:14.922Z,15.05
2023-03-14T11:09:09.694Z,15.57
2023-03-14T11:11:42.064Z,12.77
2023-03-14T11:14:34.354Z,15.73
2023-03-14T11:17:14.962Z,21.20
2023-03-14T11:19:43.992Z,22.27
2023-03-14T11:22:42.106Z,20.17
2023-03-14T11:25:22.015Z,20.60
2023-03-14T11:28:18.584Z,20.92
2023-03-14T11:31:01.046Z,23.58
2023-03-14T11:34:14.045Z,34.78
2023-03-14T11:37:30.439Z,24.45
2023-03-14T11:40:08.853Z,19.80
2023-03-14T11:42:38.160Z,21.45
2023-03-14T11:45:17.138Z,17.77
2023-03-14T11:47:50.652Z,15.27
2023-03-14T11:50:25.324Z,14.40
2023-03-14T11:53:05.904Z,14.80
2023-03-14T11:55:40.861Z,17.67
2023-03-14T11:58:19.021Z,15.95
2023-03-14T12:00:51.077Z,19.73
2023-03-14T12:03:32.567Z,13.80
2023-03-14T12:06:04.613Z,21.55
2023-03-14T12:08:50.046Z,20.45
2023-03-14T12:11:46.681Z,19.02
2023-03-14T12:14:28.775Z,21.55
2023-03-14T12:17:17.589Z,21.70
2023-03-14T12:19:49.001Z,21.52
2023-03-14T12:22:37.301Z,22.48
2023-03-14T12:25:17.173Z,22.88
2023-03-14T12:27:50.586Z,21.58
2023-03-14T12:30:43.635Z,20.52
2023-03-14T12:33:12.515Z,20.48
2023-03-14T12:35:51.329Z,20.40
2023-03-14T12:38:38.248Z,21.10
2023-03-14T12:41:37.575Z,17.17
2023-03-14T12:44:31.297Z,18.10
2023-03-14T12:47:17.045Z,19.38
2023-03-14T12:49:51.430Z,19.65
2023-03-14T12:52:47.347Z,22.20
2023-03-14T12:55:31.296Z,22.77
2023-03-14T12:58:00.227Z,26.85
2023-03-14T13:00:37.926Z,30.00
2023-03-14T13:03:29.953Z,26.33
2023-03-14T13:06:01.436Z,27.10
2023-03-14T13:08:40.549Z,25.20
2023-03-14T13:11:22.105Z,30.80
2023-03-14T13:13:58.377Z,26.65
2023-03-14T13:16:29.818Z,21.25
2023-03-14T13:19:25.664Z,19.27
2023-03-14T13:22:03.779Z,19.65
2023-03-14T13:24:36.819Z,20.88
2023-03-14T13:27:05.881Z,21.83
2023-03-14T13:29:35.055Z,22.30
2023-03-14T13:32:20.868Z,23.75
2023-03-14T13:34:50.629Z,28.17
2023-03-14T13:37:23.660Z,28.20
2023-03-14T13:39:54.438Z,27.45
2023-03-14T13:42:28.044Z,28.13
2023-03-14T13:44:58.980Z,24.52
2023-03-14T13:47:28.911Z,23.75
2023-03-14T13:49:58.037Z,23.52
2023-03-14T13:52:40.395Z,22.25
2023-03-14T13:55:17.986Z,20.42
2023-03-14T13:57:49.669Z,19.60
2023-03-14T14:00:29.686Z,20.92
2023-03-14T14:03:02.793Z,19.73
2023-03-14T14:05:33.956Z,20.27
2023-03-14T14:08:06.303Z,20.20
2023-03-14T14:10:38.279Z,20.27
2023-03-14T14:13:12.550Z,20.08
2023-03-14T14:15:49.196Z,20.40
2023-03-14T14:18:23.165Z,20.40
2023-03-14T14:20:52.493Z,18.40
2023-03-14T14:23:28.555Z,20.63
2023-03-14T14:25:59.783Z,20.38
2023-03-14T14:28:40.282Z,20.50
2023-03-14T14:31:24.885Z,21.75
2023-03-14T14:34:06.338Z,21.23
2023-03-14T14:36:54.017Z,19.05
2023-03-14T14:39:28.132Z,23.10
2023-03-14T14:41:57.380Z,22.17
2023-03-14T14:44:28.884Z,22.90
2023-03-14T14:47:00.900Z,23.75
2023-03-14T14:49:35.230Z,24.05
2023-03-14T14:52:18.231Z,23.85
2023-03-14T14:54:48.613Z,23.42
2023-03-14T14:57:29.079Z,23.55
2023-03-14T15:00:02.986Z,25.08
2023-03-14T15:02:47.339Z,25.17
2023-03-14T15:05:18.910Z,27.83
2023-03-14T15:07:48.530Z,33.97
2023-03-14T15:10:25.632Z,31.23
2023-03-14T15:12:54.856Z,28.55
2023-03-14T15:15:23.740Z,33.58
2023-03-14T15:17:52.986Z,29.55
2023-03-14T15:20:25.312Z,26.38
2023-03-14T15:22:54.662Z,26.10
2023-03-14T15:25:43.864Z,34.05
2023-03-14T15:28:30.469Z,33.25
2023-03-14T15:31:01.081Z,40.20
2023-03-14T15:33:30.872Z,33.60
2023-03-14T15:35:59.641Z,24.42
2023-03-14T15:38:28.604Z,24.73
2023-03-14T15:40:57.493Z,23.95
2023-03-14T15:43:26.405Z,24.73
2023-03-14T15:45:55.166Z,26.60
2023-03-14T15:48:24.909Z,25.63
2023-03-14T15:50:53.624Z,30.50
2023-03-14T15:53:22.455Z,51.78
2023-03-14T15:55:52.842Z,53.53
2023-03-14T15:58:22.665Z,47.90
2023-03-14T16:00:52.228Z,49.78
2023-03-14T16:03:21.297Z,63.25
2023-03-14T16:05:50.311Z,48.17
2023-03-14T16:08:19.086Z,43.97
2023-03-14T16:10:48.673Z,37.70
2023-03-14T16:13:17.898Z,32.47
2023-03-14T16:16:05.195Z,33.17
2023-03-14T16:18:36.446Z,36.20
2023-03-14T16:21:14.465Z,48.75
2023-03-14T16:23:43.831Z,37.67
2023-03-14T16:26:16.442Z,33.70
2023-03-14T16:28:46.753Z,32.22
2023-03-14T16:31:22.248Z,32.67
2023-03-14T16:33:51.466Z,38.63
2023-03-14T16:36:20.458Z,45.42
2023-03-14T16:38:50.631Z,32.10
2023-03-14T16:41:21.669Z,31.67
2023-03-14T16:43:53.195Z,30.15
2023-03-14T16:46:23.274Z,28.75
2023-03-14T16:48:52.641Z,29.35
2023-03-14T16:51:22.390Z,32.15
2023-03-14T16:53:51.884Z,31.40
2023-03-14T16:56:21.224Z,48.22
2023-03-14T16:58:52.233Z,88.45
2023-03-14T17:01:21.987Z,78.07
2023-03-14T17:03:53.071Z,54.47
2023-03-14T17:06:27.480Z,39.80
2023-03-14T17:08:58.706Z,37.28
2023-03-14T17:11:27.628Z,33.85
2023-03-14T17:13:56.436Z,36.08
2023-03-14T17:16:25.424Z,35.83
2023-03-14T17:18:54.211Z,32.85
2023-03-14T17:21:24.988Z,33.33
2023-03-14T17:23:54.123Z,30.55
2023-03-14T17:26:23.660Z,31.63
2023-03-14T17:28:52.968Z,33.97
2023-03-14T17:31:24.681Z,35.50
2023-03-14T17:33:54.175Z,37.20
2023-03-14T17:36:31.048Z,34.75
2023-03-14T17:39:00.336Z,35.33
2023-03-14T17:41:29.795Z,33.88
2023-03-14T17:43:58.993Z,30.83
2023-03-14T17:46:28.137Z,31.55
2023-03-14T17:48:57.090Z,29.90
2023-03-14T17:51:25.929Z,30.00
2023-03-14T17:53:54.871Z,31.10
2023-03-14T17:56:23.523Z,30.23
2023-03-14T17:58:53.371Z,29.80
2023-03-14T18:01:22.785Z,31.35
2023-03-14T18:03:57.181Z,30.42
2023-03-14T18:06:28.093Z,33.70
2023-03-14T18:08:57.848Z,31.42
2023-03-14T18:11:27.299Z,33.03
2023-03-14T18:13:56.229Z,33.10
2023-03-14T18:16:25.164Z,32.40
2023-03-14T18:18:54.924Z,33.60
2023-03-14T18:21:23.912Z,32.72
2023-03-14T18:23:52.678Z,32.90
2023-03-14T18:26:22.424Z,33.08
2023-03-14T18:28:51.580Z,31.65
2023-03-14T18:31:26.046Z,33.10
2023-03-14T18:33:57.882Z,31.92
2023-03-14T18:36:27.752Z,34.13
2023-03-14T18:38:57.559Z,34.22
2023-03-14T18:41:27.802Z,34.97
2023-03-14T18:43:56.697Z,33.15
2023-03-14T18:46:25.559Z,32.55
2023-03-14T18:48:57.755Z,33.13
2023-03-14T18:51:29.839Z,34.67
2023-03-14T18:54:09.984Z,34.80
2023-03-14T18:56:42.324Z,33.55
2023-03-14T18:59:15.273Z,35.13
2023-03-14T19:01:44.461Z,32.35
2023-03-14T19:04:13.403Z,34.53
2023-03-14T19:06:42.686Z,38.67
2023-03-14T19:09:16.228Z,36.90
2023-03-14T19:11:45.317Z,55.92
2023-03-14T19:14:16.806Z,70.85
2023-03-14T19:16:46.121Z,63.40
2023-03-14T19:19:15.470Z,50.00
2023-03-14T19:21:44.459Z,42.15
2023-03-14T19:24:19.488Z,37.65
2023-03-14T19:26:48.880Z,38.03
2023-03-14T19:29:18.252Z,39.65
2023-03-14T19:31:47.410Z,40.90
2023-03-14T19:34:16.158Z,36.83
2023-03-14T19:36:45.175Z,37.50
2023-03-14T19:39:13.949Z,35.67
2023-03-14T19:41:42.898Z,37.42
2023-03-14T19:44:14.212Z,37.15
2023-03-14T19:46:43.089Z,38.28
2023-03-14T19:49:12.381Z,41.78
2023-03-14T19:51:42.655Z,40.85
2023-03-14T19:54:11.641Z,40.67
2023-03-14T19:56:41.236Z,46.67
2023-03-14T19:59:10.402Z,40.17
2023-03-14T20:01:39.649Z,39.25
2023-03-14T20:04:08.859Z,51.33
2023-03-14T20:06:37.974Z,44.50
2023-03-14T20:09:06.968Z,42.47
2023-03-14T20:11:41.215Z,39.28
2023-03-14T20:14:10.992Z,46.40
2023-03-14T20:16:40.136Z,69.95
2023-03-14T20:19:11.327Z,57.92
2023-03-14T20:21:40.344Z,50.40
2023-03-14T20:24:09.311Z,47.17
2023-03-14T20:26:39.417Z,43.63
2023-03-14T20:29:08.559Z,42.33
2023-03-14T20:31:39.003Z,39.90
2023-03-14T20:34:08.194Z,42.22
2023-03-14T20:36:37.257Z,39.83
2023-03-14T20:39:06.628Z,42.85
2023-03-14T20:41:37.887Z,42.75
2023-03-14T20:44:09.851Z,43.13
2023-03-14T20:46:39.618Z,41.17
2023-03-14T20:49:08.622Z,59.88
2023-03-14T20:51:37.648Z,48.78
2023-03-14T20:54:08.421Z,46.15
2023-03-14T20:56:37.310Z,45.50
2023-03-14T20:59:06.285Z,43.65
2023-03-14T21:04:20.970Z,45.47
2023-03-14T21:06:49.767Z,45.92
2023-03-14T21:09:18.634Z,47.15
2023-03-14T21:11:48.149Z,50.25
2023-03-14T21:14:20.774Z,51.10
2023-03-14T21:19:19.119Z,49.22
2023-03-14T21:21:48.291Z,55.20
2023-03-14T21:24:17.626Z,76.35
2023-03-14T21:26:47.624Z,91.50
2023-03-14T21:29:16.428Z,67.28
2023-03-14T21:31:45.527Z,79.65
2023-03-14T21:34:14.529Z,95.78
2023-03-14T21:36:43.726Z,84.18
2023-03-14T21:39:12.503Z,69.63
2023-03-14T21:41:41.417Z,67.38
2023-03-14T21:44:10.178Z,60.45
2023-03-14T21:46:39.152Z,54.25
2023-03-14T21:49:07.871Z,52.83
2023-03-14T21:51:36.985Z,54.78
2023-03-14T21:54:10.983Z,51.42
2023-03-14T21:56:40.181Z,47.00
2023-03-14T21:59:09.284Z,46.53
2023-03-14T22:01:38.298Z,44.03
2023-03-14T22:04:07.184Z,46.47
2023-03-14T22:06:36.114Z,47.83
2023-03-14T22:09:05.113Z,47.55
2023-03-14T22:11:34.086Z,45.20
2023-03-14T22:14:02.815Z,46.47
2023-03-14T22:16:31.848Z,46.67
2023-03-14T22:19:00.807Z,47.03
2023-03-14T22:21:29.688Z,48.55
2023-03-14T22:23:58.485Z,47.88
2023-03-14T22:26:27.457Z,50.30
2023-03-14T22:28:56.148Z,48.17
2023-03-14T22:31:25.388Z,47.42
2023-03-14T22:33:54.243Z,48.72
2023-03-14T22:36:23.281Z,52.20
2023-03-14T22:38:51.989Z,50.45
2023-03-14T22:41:20.958Z,52.00
2023-03-14T22:43:50.886Z,51.15
2023-03-14T22:46:19.929Z,48.88
2023-03-14T22:48:48.705Z,49.92
2023-03-14T22:51:17.699Z,49.53
2023-03-14T22:53:46.993Z,50.97
2023-03-14T22:56:15.936Z,49.83
2023-03-14T22:58:44.653Z,47.72
2023-03-14T23:01:14.610Z,46.05
2023-03-14T23:03:43.421Z,47.22
2023-03-14T23:06:12.483Z,44.20
2023-03-14T23:08:41.125Z,43.50
2023-03-14T23:11:10.371Z,43.13
2023-03-14T23:13:39.048Z,46.33
2023-03-14T23:16:09.139Z,44.65
2023-03-14T23:18:40.747Z,43.13
2023-03-14T23:21:13.162Z,43.50
2023-03-14T23:26:12.771Z,40.13
2023-03-14T23:28:43.470Z,40.13
2023-03-14T23:31:15.363Z,43.25
2023-03-14T23:33:46.071Z,45.55
2023-03-14T23:36:16.614Z,45.45
2023-03-14T23:38:47.065Z,43.58
2023-03-14T23:41:16.663Z,44.83
2023-03-14T23:43:49.565Z,46.85
2023-03-14T23:46:18.575Z,44.22
2023-03-14T23:48:47.613Z,44.70
2023-03-14T23:51:17.621Z,46.28
2023-03-14T23:53:46.301Z,44.72
2023-03-14T23:56:16.488Z,46.58
2023-03-14T23:58:45.631Z,43.03
